Shenandoah National Park, VA

1:08 PM EDT on May 30, 2015 (GMT -0400)
Redwood Lakes | | Change Station
CLOSE
Current Station
Personal Weather Station
Location: Culpeper, VA
Elevation: 416 ft
Nearby Weather Stations

Elev 416 ft 38.47 °N, 78.02 °W | Updated 3 seconds ago

Clear
Clear
84.4 °F
Feels Like 86 °F
N
4.3
Wind Variable Wind from SSE
Gusts 4.9 mph

Today
High -- | Low -- °F
--% Chance of Precip.
Yesterday
High -- | Low -- °F
Precip. -- in
5:50 AM 8:28 PM
Waxing Gibbous, 91% visible
Pressure 30.16 in
Visibility 10.0 miles
Clouds Clear
Heat Index 86 °F
Dew Point 65 °F
Humidity 52%
Rainfall 0.00 in
Snow Depth Not available.
UV 7.0 out of 12
Pollen 8.80 out of 12
Air Quality Not available.
Flu Activity Sporadic
METAR KCJR 301655Z AUTO 20006KT 150V220 10SM CLR 29/18 A3016 RMK AO2 T02910179 PWINO

More Conditions Fewer Conditions

Pressure 30.16 in
Visibility 10.0 miles
Clouds Clear
Heat Index 86 °F
Dew Point 65 °F
Humidity 52%
Rainfall 0.00 in
Snow Depth Not available.
UV 7.0 out of 12
Pollen 8.80 out of 12
Air Quality Not available.
Flu Activity Sporadic
METAR KCJR 301655Z AUTO 20006KT 150V220 10SM CLR 29/18 A3016 RMK AO2 T02910179 PWINO

More Conditions Fewer Conditions

10-Day Weather Forecast

Almanac

Astronomy

May. 30, 2015 Rise Set
Actual Time
Civil Twilight
Nautical Twilight
Astronomical Twilight
Moon
Length of Visible Light
Length of Day
Tomorrow will be .
, % of the Moon is Illuminated

Today's Extremes

State Highs State Lows

Community

WunderPhotos

Upload Photos

1,825,571 photos uploaded!

WunderBlogs® & News

Nearby

Air Quality

  Air Quality AQ Index Pollutant
Not available.

Snow Depth

Station Depth Elevation

Earthquake Activity

City Distance Mag. Time & Date
Minimum magnitude displayed is 2.5.

Coastal Water Temperatures

Place Temperature

Stations

Nearby Weather Stations

Station Location Temp. Windchill Dew Point Humidity Wind Precip. Elev Updated Type